Time;durP1;ratioP1;P1;durP2;ratioP2;P2;SDS_P1;SDS_P2;PMS_P1;PMS_P2;Temp;Humidity;BMP_temperature;BMP_pressure;BME280_temperature;BME280_humidity;BME280_pressure;Samples;Min_cycle;Max_cycle;Signal;HPM_P1;HPM_P2
2021/03/28 00:01:20;;;;;;;6.95;3.15;;;;;;;-141.50;100.00;63355.56;5072480;28;20047;-79
2021/03/28 00:03:59;;;;;;;6.75;2.63;;;;;;;-141.50;100.00;63355.56;5072418;28;20443;-79
2021/03/28 00:06:31;;;;;;;6.45;3.13;;;;;;;-141.50;100.00;63355.56;5063139;28;20099;-80
2021/03/28 00:09:27;;;;;;;7.35;3.00;;;;;;;-141.50;100.00;63355.56;5051133;28;20131;-78
2021/03/28 00:12:12;;;;;;;10.27;3.65;;;;;;;-141.50;100.00;63355.56;5068639;28;20044;-78
2021/03/28 00:14:46;;;;;;;5.45;3.33;;;;;;;-141.50;100.00;63355.56;5051346;28;20060;-79
2021/03/28 00:17:50;;;;;;;9.70;3.47;;;;;;;-141.50;100.00;63355.56;5052084;28;20049;-78
2021/03/28 00:20:16;;;;;;;7.07;3.60;;;;;;;-141.50;100.00;63355.56;5080623;28;20036;-77
2021/03/28 00:23:04;;;;;;;9.20;3.45;;;;;;;-141.50;100.00;63355.56;5070321;28;20175;-78
2021/03/28 00:25:35;;;;;;;10.88;3.13;;;;;;;-141.50;100.00;63355.56;5068361;28;20052;-78
2021/03/28 00:28:05;;;;;;;10.82;3.95;;;;;;;-141.50;100.00;63355.56;5070007;28;20523;-78
2021/03/28 00:30:43;;;;;;;8.40;3.30;;;;;;;-141.50;100.00;63355.56;5076488;28;20047;-76
2021/03/28 00:33:09;;;;;;;11.25;3.38;;;;;;;-141.50;100.00;63355.56;5074367;28;20416;-78
2021/03/28 00:35:54;;;;;;;10.80;3.85;;;;;;;-141.50;100.00;63355.56;5054218;28;20091;-77
2021/03/28 00:38:25;;;;;;;9.05;3.42;;;;;;;-141.50;100.00;63355.56;5071380;28;20055;-78
2021/03/28 00:41:09;;;;;;;7.53;3.38;;;;;;;-141.50;100.00;63355.56;5090672;28;20044;-78
2021/03/28 00:44:05;;;;;;;8.38;3.33;;;;;;;-141.50;100.00;63355.56;5071480;28;20044;-79
2021/03/28 00:46:42;;;;;;;10.25;3.50;;;;;;;-141.50;100.00;63355.56;5070491;28;20240;-78
2021/03/28 00:49:26;;;;;;;11.68;3.88;;;;;;;-141.50;100.00;63355.56;5054109;28;20056;-77
2021/03/28 00:51:57;;;;;;;11.07;3.97;;;;;;;-141.50;100.00;63355.56;5071750;28;20082;-77
2021/03/28 00:54:49;;;;;;;11.35;3.92;;;;;;;-141.50;100.00;63355.56;5089545;28;20127;-80
2021/03/28 00:57:29;;;;;;;7.72;3.50;;;;;;;-141.50;100.00;63355.56;5077228;28;20095;-78
2021/03/28 01:00:11;;;;;;;8.75;3.83;;;;;;;-141.50;100.00;63355.56;5054729;28;20058;-78
2021/03/28 01:03:07;;;;;;;7.80;3.58;;;;;;;-141.50;100.00;63355.56;5094451;28;20048;-78
2021/03/28 01:05:47;;;;;;;11.57;4.35;;;;;;;-141.50;100.00;63355.56;5068780;28;20075;-79
2021/03/28 01:08:32;;;;;;;11.73;4.00;;;;;;;-141.50;100.00;63355.56;5072447;28;20051;-79
2021/03/28 01:11:04;;;;;;;9.13;3.80;;;;;;;-141.50;100.00;63355.56;5073661;28;20090;-78
2021/03/28 01:13:53;;;;;;;12.20;4.55;;;;;;;-141.50;100.00;63355.56;5073638;28;20605;-77
2021/03/28 01:17:00;;;;;;;12.48;5.00;;;;;;;-141.50;100.00;63355.56;5095272;28;20051;-79
2021/03/28 01:19:48;;;;;;;11.70;3.65;;;;;;;-141.50;100.00;63355.56;5079235;28;20051;-78
2021/03/28 01:22:33;;;;;;;11.43;4.30;;;;;;;-141.50;100.00;63355.56;5088503;28;20081;-79
2021/03/28 01:25:39;;;;;;;11.50;4.07;;;;;;;-141.50;100.00;63355.56;5106784;22;20059;-76
2021/03/28 01:28:22;;;;;;;8.43;3.58;;;;;;;-141.50;100.00;63355.56;5089838;28;20047;-76
2021/03/28 01:31:00;;;;;;;11.82;3.88;;;;;;;-141.50;100.00;63355.56;5092648;28;20039;-76
2021/03/28 01:33:42;;;;;;;7.90;3.70;;;;;;;-141.50;100.00;63355.56;5092106;28;20051;-76
2021/03/28 01:36:22;;;;;;;10.18;4.13;;;;;;;-141.50;100.00;63355.56;5091967;28;20048;-76
2021/03/28 01:39:14;;;;;;;13.35;4.35;;;;;;;-141.50;100.00;63355.56;5090916;28;20040;-76
2021/03/28 01:41:53;;;;;;;8.60;4.20;;;;;;;-141.50;100.00;63355.56;5085344;28;20050;-76
2021/03/28 01:44:28;;;;;;;12.55;4.82;;;;;;;-141.50;100.00;63355.56;5072373;28;20048;-76
2021/03/28 01:47:12;;;;;;;9.52;4.20;;;;;;;-141.50;100.00;63355.56;5068603;28;20044;-76
2021/03/28 01:50:20;;;;;;;8.27;3.92;;;;;;;-141.50;100.00;63355.56;5070379;28;20278;-76
2021/03/28 01:53:01;;;;;;;10.27;4.40;;;;;;;-141.50;100.00;63355.56;5087233;28;20442;-76
2021/03/28 01:55:46;;;;;;;11.63;4.63;;;;;;;-141.50;100.00;63355.56;5061799;28;20044;-76
2021/03/28 01:58:27;;;;;;;12.40;4.50;;;;;;;-141.50;100.00;63355.56;5069449;28;20037;-75
2021/03/28 02:01:11;;;;;;;10.77;4.00;;;;;;;-141.50;100.00;63355.56;5070964;28;20045;-76
2021/03/28 02:03:45;;;;;;;10.98;4.47;;;;;;;-141.50;100.00;63355.56;5070518;28;20487;-76
2021/03/28 02:06:32;;;;;;;12.38;4.65;;;;;;;-141.50;100.00;63355.56;5068890;28;20052;-76
2021/03/28 02:09:30;;;;;;;7.60;4.38;;;;;;;-141.50;100.00;63355.56;5068521;28;20044;-76
2021/03/28 02:12:05;;;;;;;11.95;4.35;;;;;;;-141.50;100.00;63355.56;5070009;28;20048;-76
2021/03/28 02:14:56;;;;;;;11.90;4.25;;;;;;;-141.50;100.00;63355.56;5060384;28;20044;-76
2021/03/28 02:17:40;;;;;;;8.63;4.20;;;;;;;-141.50;100.00;63355.56;5090483;28;20051;-76
2021/03/28 02:20:23;;;;;;;11.02;4.63;;;;;;;-141.50;100.00;63355.56;5057871;28;20051;-76
2021/03/28 02:23:08;;;;;;;14.82;4.40;;;;;;;-141.50;100.00;63355.56;5090779;28;20052;-76
2021/03/28 02:25:34;;;;;;;8.68;4.38;;;;;;;-141.50;100.00;63355.56;5090348;28;20127;-76
2021/03/28 02:28:16;;;;;;;9.80;4.25;;;;;;;-141.50;100.00;63355.56;5090875;28;20044;-76
2021/03/28 02:30:43;;;;;;;16.25;4.60;;;;;;;-141.50;100.00;63355.56;5072907;28;20097;-76
2021/03/28 02:33:31;;;;;;;8.50;4.18;;;;;;;-141.50;100.00;63355.56;5090465;28;20051;-76
2021/03/28 02:36:16;;;;;;;15.02;4.47;;;;;;;-141.50;100.00;63355.56;5090446;28;20052;-76
2021/03/28 02:39:26;;;;;;;8.80;4.43;;;;;;;-141.50;100.00;63355.56;5090303;28;20048;-76
2021/03/28 02:42:09;;;;;;;10.68;4.60;;;;;;;-141.50;100.00;63355.56;5072112;28;20054;-76
2021/03/28 02:44:47;;;;;;;12.40;5.20;;;;;;;-141.50;100.00;63355.56;5090552;28;20036;-76
2021/03/28 02:47:42;;;;;;;10.13;4.80;;;;;;;-141.50;100.00;63355.56;5089886;28;20503;-76
2021/03/28 02:50:27;;;;;;;13.77;4.40;;;;;;;-141.50;100.00;63355.56;5090335;28;20568;-76
2021/03/28 02:53:34;;;;;;;13.30;4.60;;;;;;;-141.50;100.00;63355.56;5089699;28;20032;-76
2021/03/28 02:56:00;;;;;;;14.27;5.30;;;;;;;-141.50;100.00;63355.56;5071982;28;20044;-76
2021/03/28 02:58:42;;;;;;;18.13;4.72;;;;;;;-141.50;100.00;63355.56;5089452;28;20040;-74
2021/03/28 03:01:52;;;;;;;12.80;4.57;;;;;;;-141.50;100.00;63355.56;5090053;28;20412;-75
2021/03/28 03:04:28;;;;;;;14.93;4.72;;;;;;;-141.50;100.00;63355.56;5071994;28;20036;-74
2021/03/28 03:07:15;;;;;;;;;;;;;;;-141.50;100.00;63355.56;5072768;28;20048;-74
2021/03/28 03:09:54;;;;;;;12.13;4.25;;;;;;;-141.50;100.00;63355.56;5073301;28;19920;-74
2021/03/28 03:12:28;;;;;;;12.95;4.97;;;;;;;-141.50;100.00;63355.56;5089977;28;20165;-75
2021/03/28 03:15:28;;;;;;;12.05;4.50;;;;;;;-141.50;100.00;63355.56;5089927;28;20048;-76
2021/03/28 03:18:46;;;;;;;11.32;4.97;;;;;;;-141.50;100.00;63355.56;5090073;28;20060;-76
2021/03/28 03:21:28;;;;;;;13.00;5.07;;;;;;;-141.50;100.00;63355.56;4987479;28;20050;-76
2021/03/28 03:24:30;;;;;;;9.75;4.68;;;;;;;-141.50;100.00;63355.56;4986657;28;20054;-76
2021/03/28 03:27:23;;;;;;;13.05;4.80;;;;;;;-141.50;100.00;63355.56;5072003;28;20064;-76
2021/03/28 03:30:12;;;;;;;11.95;4.80;;;;;;;-141.50;100.00;63355.56;5089795;28;20040;-76
2021/03/28 03:33:19;;;;;;;16.83;4.88;;;;;;;-141.50;100.00;63355.56;5072148;28;20055;-76
2021/03/28 03:36:04;;;;;;;19.23;6.10;;;;;;;-141.50;100.00;63355.56;5071047;28;20131;-76
2021/03/28 03:38:56;;;;;;;14.93;5.50;;;;;;;-141.50;100.00;63355.56;5089438;28;20096;-75
2021/03/28 03:41:43;;;;;;;16.63;4.93;;;;;;;-141.50;100.00;63355.56;5051539;28;20526;-75
2021/03/28 03:44:41;;;;;;;15.52;5.38;;;;;;;-141.50;100.00;63355.56;5071630;28;20486;-76
2021/03/28 03:47:20;;;;;;;9.13;5.00;;;;;;;-141.50;100.00;63355.56;5089134;28;20050;-76
2021/03/28 03:50:04;;;;;;;11.20;5.05;;;;;;;-141.50;100.00;63355.56;5071680;28;20127;-75
2021/03/28 03:52:52;;;;;;;16.40;5.07;;;;;;;-141.50;100.00;63355.56;5070870;28;20043;-75
2021/03/28 03:55:40;;;;;;;14.35;4.75;;;;;;;-141.50;100.00;63355.56;5054190;28;20070;-75
2021/03/28 03:58:28;;;;;;;13.70;5.05;;;;;;;-141.50;100.00;63355.56;5089489;28;20048;-75
2021/03/28 04:01:17;;;;;;;14.52;5.38;;;;;;;-141.50;100.00;63355.56;5072035;28;20093;-74
2021/03/28 04:04:17;;;;;;;12.18;4.97;;;;;;;-141.50;100.00;63355.56;5071598;28;20368;-74
2021/03/28 04:06:59;;;;;;;11.30;4.43;;;;;;;-141.50;100.00;63355.56;5089579;28;20048;-74
2021/03/28 04:09:40;;;;;;;17.60;4.30;;;;;;;-141.50;100.00;63355.56;5088657;28;20036;-75
2021/03/28 04:12:18;;;;;;;15.52;4.88;;;;;;;-141.50;100.00;63355.56;5066339;28;20459;-75
2021/03/28 04:15:01;;;;;;;13.90;4.50;;;;;;;-141.50;100.00;63355.56;5067294;28;20048;-75
2021/03/28 04:17:55;;;;;;;13.70;5.07;;;;;;;-141.50;100.00;63355.56;5081666;28;20048;-75
2021/03/28 04:20:32;;;;;;;15.90;5.25;;;;;;;-141.50;100.00;63355.56;5089525;28;20036;-75
2021/03/28 04:23:21;;;;;;;17.40;5.95;;;;;;;-141.50;100.00;63355.56;5088397;28;20125;-75
2021/03/28 04:26:13;;;;;;;13.30;4.95;;;;;;;-141.50;100.00;63355.56;5071854;28;20072;-76
2021/03/28 04:29:07;;;;;;;12.73;4.68;;;;;;;-141.50;100.00;63355.56;5071222;28;20248;-75
2021/03/28 04:31:54;;;;;;;10.27;5.05;;;;;;;-141.50;100.00;63355.56;5082480;28;20100;-75
2021/03/28 04:34:24;;;;;;;11.52;4.82;;;;;;;-141.50;100.00;63355.56;5088842;28;20044;-76
2021/03/28 04:37:08;;;;;;;11.68;4.60;;;;;;;-141.50;100.00;63355.56;5091514;28;20044;-76
2021/03/28 04:40:02;;;;;;;13.40;5.38;;;;;;;-141.50;100.00;63355.56;5073774;28;20040;-76
2021/03/28 04:42:41;;;;;;;14.07;4.68;;;;;;;-141.50;100.00;63355.56;5073769;28;20115;-76
2021/03/28 04:45:07;;;;;;;11.70;4.70;;;;;;;-141.50;100.00;63355.56;5092747;28;20036;-76
2021/03/28 04:48:10;;;;;;;13.02;4.40;;;;;;;-141.50;100.00;63355.56;5073926;28;20571;-76
2021/03/28 04:51:15;;;;;;;14.93;4.22;;;;;;;-141.50;100.00;63355.56;5076061;28;20419;-76
2021/03/28 04:54:10;;;;;;;19.83;4.63;;;;;;;-141.50;100.00;63355.56;5023082;28;20067;-75
2021/03/28 04:56:37;;;;;;;11.07;4.85;;;;;;;-141.50;100.00;63355.56;5094261;28;20264;-75
2021/03/28 04:59:38;;;;;;;15.43;5.35;;;;;;;-141.50;100.00;63355.56;5057993;28;20666;-76
2021/03/28 05:02:16;;;;;;;15.20;5.15;;;;;;;-141.50;100.00;63355.56;5074766;28;20445;-75
2021/03/28 05:05:06;;;;;;;13.90;4.85;;;;;;;-141.50;100.00;63355.56;5092659;28;20040;-75
2021/03/28 05:08:09;;;;;;;12.07;5.18;;;;;;;-141.50;100.00;63355.56;5092493;28;20043;-75
2021/03/28 05:10:58;;;;;;;10.70;4.43;;;;;;;-141.50;100.00;63355.56;5089857;28;20040;-75
2021/03/28 05:13:55;;;;;;;13.77;4.45;;;;;;;-141.50;100.00;63355.56;5082789;28;20036;-75
2021/03/28 05:16:42;;;;;;;11.77;4.30;;;;;;;-141.50;100.00;63355.56;5074234;28;20051;-75
2021/03/28 05:19:41;;;;;;;13.52;4.88;;;;;;;-141.50;100.00;63355.56;5070709;28;20496;-75
2021/03/28 05:22:49;;;;;;;19.70;4.88;;;;;;;-141.50;100.00;63355.56;5074431;28;20633;-75
2021/03/28 05:25:31;;;;;;;13.13;4.90;;;;;;;-141.50;100.00;63355.56;5065795;28;20040;-75
2021/03/28 05:28:38;;;;;;;12.80;4.60;;;;;;;-141.50;100.00;63355.56;5092421;28;20061;-75
2021/03/28 05:31:41;;;;;;;13.57;4.72;;;;;;;-141.50;100.00;63355.56;5064220;28;20067;-76
2021/03/28 05:34:35;;;;;;;11.65;4.38;;;;;;;-141.50;100.00;63355.56;5092109;28;20047;-76
2021/03/28 05:37:25;;;;;;;14.45;4.47;;;;;;;-141.50;100.00;63355.56;5091920;28;20403;-76
2021/03/28 05:40:02;;;;;;;10.95;4.20;;;;;;;-141.50;100.00;63355.56;5092174;28;20047;-75
2021/03/28 05:42:56;;;;;;;13.55;4.25;;;;;;;-141.50;100.00;63355.56;5051838;28;20483;-76
2021/03/28 05:45:50;;;;;;;12.88;4.43;;;;;;;-141.50;100.00;63355.56;5087405;28;20043;-75
2021/03/28 05:48:45;;;;;;;11.95;4.10;;;;;;;-141.50;100.00;63355.56;5075487;28;20051;-75
2021/03/28 05:51:43;;;;;;;9.77;4.32;;;;;;;-141.50;100.00;63355.56;5094050;28;20043;-75
2021/03/28 05:54:39;;;;;;;11.63;4.20;;;;;;;-141.50;100.00;63355.56;5092520;28;20098;-75
2021/03/28 05:57:42;;;;;;;13.50;4.32;;;;;;;-141.50;100.00;63355.56;5092190;28;20048;-75
2021/03/28 06:00:20;;;;;;;16.33;4.63;;;;;;;-141.50;100.00;63355.56;5091939;28;20051;-75
2021/03/28 06:03:13;;;;;;;13.43;4.18;;;;;;;-141.50;100.00;63355.56;5088971;28;20059;-75
2021/03/28 06:06:03;;;;;;;10.68;4.20;;;;;;;-141.50;100.00;63355.56;5066205;28;20449;-76
2021/03/28 06:09:11;;;;;;;15.30;4.35;;;;;;;-141.50;100.00;63355.56;5089232;28;20095;-75
2021/03/28 06:12:03;;;;;;;17.33;4.40;;;;;;;-141.50;100.00;63355.56;5050967;28;20125;-76
2021/03/28 06:15:01;;;;;;;14.63;4.38;;;;;;;-141.50;100.00;63355.56;5093699;28;20046;-76
2021/03/28 06:17:48;;;;;;;;;;;;;;;-141.50;100.00;63355.56;5089682;28;20543;-76
2021/03/28 06:20:37;;;;;;;18.02;4.53;;;;;;;-141.50;100.00;63355.56;5070598;28;19924;-75
2021/03/28 06:23:42;;;;;;;14.52;4.50;;;;;;;-141.50;100.00;63355.56;5068602;28;20048;-75
2021/03/28 06:26:19;;;;;;;15.55;4.13;;;;;;;-141.50;100.00;63355.56;5086050;28;20220;-75
2021/03/28 06:29:15;;;;;;;16.83;4.68;;;;;;;-141.50;100.00;63355.56;5089248;28;20044;-75
2021/03/28 06:32:19;;;;;;;14.35;4.38;;;;;;;-141.50;100.00;63355.56;5070335;28;20058;-76
2021/03/28 06:35:18;;;;;;;15.20;4.95;;;;;;;-141.50;100.00;63355.56;5067863;28;20396;-76
2021/03/28 06:38:14;;;;;;;17.70;4.38;;;;;;;-141.50;100.00;63355.56;5078683;28;20403;-76
2021/03/28 06:41:18;;;;;;;13.68;3.80;;;;;;;-141.50;100.00;63355.56;5084128;28;20044;-76
2021/03/28 06:44:06;;;;;;;13.65;4.35;;;;;;;-141.50;100.00;63355.56;5085491;28;20043;-76
2021/03/28 06:46:58;;;;;;;15.77;4.10;;;;;;;-141.50;100.00;63355.56;5081844;28;20051;-75
2021/03/28 06:49:29;;;;;;;15.48;3.97;;;;;;;-141.50;100.00;63355.56;5079551;28;20032;-76
2021/03/28 06:52:24;;;;;;;8.35;3.70;;;;;;;-141.50;100.00;63355.56;5068209;28;20059;-77
2021/03/28 06:55:17;;;;;;;13.02;3.88;;;;;;;-141.50;100.00;63355.56;5074451;28;20048;-75
2021/03/28 06:58:02;;;;;;;14.05;3.50;;;;;;;-141.50;100.00;63355.56;5084353;28;20039;-76
2021/03/28 07:01:02;;;;;;;11.98;4.10;;;;;;;-141.50;100.00;63355.56;5080522;28;20454;-76
2021/03/28 07:04:05;;;;;;;13.48;3.70;;;;;;;-141.50;100.00;63355.56;5070244;28;20044;-76
2021/03/28 07:06:58;;;;;;;13.30;3.95;;;;;;;-141.50;100.00;63355.56;5068894;28;20072;-75
2021/03/28 07:09:55;;;;;;;9.80;3.90;;;;;;;-141.50;100.00;63355.56;5087613;28;20131;-75
2021/03/28 07:12:55;;;;;;;13.05;3.72;;;;;;;-141.50;100.00;63355.56;5086982;28;20055;-75
2021/03/28 07:15:44;;;;;;;12.45;3.60;;;;;;;-141.50;100.00;63355.56;5086991;28;20048;-75
2021/03/28 07:18:42;;;;;;;11.07;3.33;;;;;;;-141.50;100.00;63355.56;5067410;28;20040;-76
2021/03/28 07:21:53;;;;;;;12.45;3.63;;;;;;;-141.50;100.00;63355.56;5071050;28;20390;-77
2021/03/28 07:24:43;;;;;;;14.82;3.90;;;;;;;-141.50;100.00;63355.56;5080057;22;20059;-79
2021/03/28 07:27:36;;;;;;;10.63;3.28;;;;;;;-141.50;100.00;63355.56;5086047;28;20043;-80
2021/03/28 07:30:36;;;;;;;9.65;3.33;;;;;;;-141.50;100.00;63355.56;5012375;28;20520;-80
2021/03/28 07:33:27;;;;;;;12.80;3.33;;;;;;;-141.50;100.00;63355.56;5043404;28;20093;-82
2021/03/28 07:36:03;;;;;;;14.35;3.92;;;;;;;-141.50;100.00;63355.56;5031327;28;20071;-81
2021/03/28 07:38:58;;;;;;;12.43;3.70;;;;;;;-141.50;100.00;63355.56;5031055;28;20056;-80
2021/03/28 07:41:53;;;;;;;9.75;3.60;;;;;;;-141.50;100.00;63355.56;5047602;28;20095;-81
2021/03/28 07:44:44;;;;;;;18.00;3.53;;;;;;;-141.50;100.00;63355.56;5047608;28;20047;-82
2021/03/28 07:47:41;;;;;;;7.70;2.88;;;;;;;-141.50;100.00;63355.56;5037697;28;20048;-82
2021/03/28 07:50:31;;;;;;;15.32;3.60;;;;;;;-141.50;100.00;63355.56;5050397;28;20041;-81
2021/03/28 07:53:33;;;;;;;12.32;3.55;;;;;;;-141.50;100.00;63355.56;5036138;28;20159;-82
2021/03/28 07:56:38;;;;;;;13.38;3.42;;;;;;;-141.50;100.00;63355.56;5026697;28;20049;-83
2021/03/28 07:59:54;;;;;;;11.57;2.80;;;;;;;-141.50;100.00;63355.56;5038581;28;20049;-82
2021/03/28 08:02:45;;;;;;;12.60;3.47;;;;;;;-141.50;100.00;63355.56;5022401;28;20060;-82
2021/03/28 08:05:29;;;;;;;9.90;3.30;;;;;;;-141.50;100.00;63355.56;5055988;28;20424;-81
2021/03/28 08:08:06;;;;;;;10.75;3.55;;;;;;;-141.50;100.00;63355.56;5069402;28;20087;-81
2021/03/28 08:10:38;;;;;;;11.70;3.53;;;;;;;-141.50;100.00;63355.56;5053483;28;20048;-82
2021/03/28 08:13:42;;;;;;;12.95;3.33;;;;;;;-141.50;100.00;63355.56;5071912;28;20075;-81
2021/03/28 08:16:36;;;;;;;15.20;3.50;;;;;;;-141.50;100.00;63355.56;5053438;28;20048;-80
2021/03/28 08:19:28;;;;;;;15.88;3.35;;;;;;;-141.50;100.00;63355.56;5072646;28;20221;-82
2021/03/28 08:22:19;;;;;;;12.70;3.63;;;;;;;-141.50;100.00;63355.56;5051712;28;20041;-81
2021/03/28 08:25:22;;;;;;;9.95;3.30;;;;;;;-141.50;100.00;63355.56;5051748;28;20059;-82
2021/03/28 08:28:02;;;;;;;14.18;3.45;;;;;;;-141.50;100.00;63355.56;5046643;28;20291;-84
2021/03/28 08:30:36;;;;;;;11.52;3.38;;;;;;;-141.50;100.00;63355.56;5070710;28;20048;-84
2021/03/28 08:33:24;;;;;;;15.70;3.63;;;;;;;-141.50;100.00;63355.56;5050834;28;20040;-83
2021/03/28 08:36:14;;;;;;;11.98;3.50;;;;;;;-141.50;100.00;63355.56;5052211;28;20135;-84
2021/03/28 08:38:56;;;;;;;12.63;3.17;;;;;;;-141.50;100.00;63355.56;5070778;28;20053;-83
2021/03/28 08:42:04;;;;;;;10.50;3.22;;;;;;;-141.50;100.00;63355.56;5070174;28;20120;-82
2021/03/28 08:44:47;;;;;;;16.23;3.17;;;;;;;-141.50;100.00;63355.56;5055848;28;20476;-84
2021/03/28 08:47:41;;;;;;;15.52;3.40;;;;;;;-141.50;100.00;63355.56;5053643;28;20064;-84
2021/03/28 08:50:15;;;;;;;9.20;2.67;;;;;;;-141.50;100.00;63355.56;5053777;28;20107;-83
2021/03/28 08:53:21;;;;;;;9.23;3.08;;;;;;;-141.50;100.00;63355.56;5053772;28;20072;-82
2021/03/28 08:57:01;;;;;;;6.93;2.78;;;;;;;-141.50;100.00;63355.56;5063929;28;20052;-82
2021/03/28 09:02:55;;;;;;;15.15;3.50;;;;;;;-141.50;100.00;63355.56;5015667;28;20041;-78
2021/03/28 09:05:47;;;;;;;12.80;3.03;;;;;;;-141.50;100.00;63355.56;5016659;28;20045;-79
2021/03/28 09:08:39;;;;;;;15.52;3.00;;;;;;;-141.50;100.00;63355.56;4998808;28;20050;-79
2021/03/28 09:11:27;;;;;;;14.70;3.25;;;;;;;-141.50;100.00;63355.56;5009008;28;20046;-79
2021/03/28 09:14:33;;;;;;;9.85;2.03;;;;;;;-141.50;100.00;63355.56;4985335;28;20050;-77
2021/03/28 09:17:19;;;;;;;11.75;2.63;;;;;;;-141.50;100.00;63355.56;5000355;28;20153;-78
2021/03/28 09:19:48;;;;;;;10.63;2.63;;;;;;;-141.50;100.00;63355.56;4998600;28;20062;-79
2021/03/28 09:22:16;;;;;;;12.98;2.95;;;;;;;-141.50;100.00;63355.56;4995196;28;20050;-80
2021/03/28 09:24:58;;;;;;;12.02;3.00;;;;;;;-141.50;100.00;63355.56;5007152;28;20106;-81
2021/03/28 09:27:34;;;;;;;12.82;3.08;;;;;;;-141.50;100.00;63355.56;4998231;28;20042;-80
2021/03/28 09:30:16;;;;;;;10.23;2.50;;;;;;;-141.50;100.00;63355.56;5024624;23;20053;-80
2021/03/28 09:33:13;;;;;;;12.20;2.58;;;;;;;-141.50;100.00;63355.56;5015190;28;20540;-81
2021/03/28 09:36:33;;;;;;;9.48;2.60;;;;;;;-141.50;100.00;63355.56;4995965;28;20049;-81
2021/03/28 09:39:20;;;;;;;11.20;2.83;;;;;;;-141.50;100.00;63355.56;4933209;29;20063;-81
2021/03/28 09:42:13;;;;;;;14.20;3.00;;;;;;;-141.50;100.00;63355.56;4971846;28;20059;-81
2021/03/28 09:45:04;;;;;;;16.48;3.35;;;;;;;-141.50;100.00;63355.56;4986866;28;20038;-79
2021/03/28 09:47:39;;;;;;;13.18;2.97;;;;;;;-141.50;100.00;63355.56;4993765;28;20046;-80
2021/03/28 09:50:29;;;;;;;11.80;2.92;;;;;;;-141.50;100.00;63355.56;4993081;28;20050;-78
2021/03/28 09:53:14;;;;;;;14.77;2.65;;;;;;;-141.50;100.00;63355.56;5004391;28;20141;-78
2021/03/28 09:56:35;;;;;;;10.18;3.10;;;;;;;-141.50;100.00;63355.56;4994199;28;20046;-78
2021/03/28 09:59:20;;;;;;;13.65;3.17;;;;;;;-141.50;100.00;63355.56;4941924;29;20075;-80
2021/03/28 10:02:20;;;;;;;9.00;2.20;;;;;;;-141.50;100.00;63355.56;4982178;28;20159;-80
2021/03/28 10:05:14;;;;;;;15.18;2.78;;;;;;;-141.50;100.00;63355.56;4994334;28;20062;-80
2021/03/28 10:08:10;;;;;;;15.77;2.90;;;;;;;-141.50;100.00;63355.56;4979924;28;20046;-78
2021/03/28 10:11:14;;;;;;;13.80;3.07;;;;;;;-141.50;100.00;63355.56;4997460;28;20072;-81
2021/03/28 10:13:54;;;;;;;11.95;3.15;;;;;;;-141.50;100.00;63355.56;4972081;28;20053;-78
2021/03/28 10:16:39;;;;;;;7.82;2.90;;;;;;;-141.50;100.00;63355.56;4992648;28;20050;-80
2021/03/28 10:19:32;;;;;;;12.13;3.03;;;;;;;-141.50;100.00;63355.56;4997965;28;20142;-79
2021/03/28 10:22:37;;;;;;;16.02;2.88;;;;;;;-141.50;100.00;63355.56;4999688;28;20052;-79
2021/03/28 10:25:19;;;;;;;13.05;3.10;;;;;;;-141.50;100.00;63355.56;4995766;28;20038;-72
2021/03/28 10:28:05;;;;;;;12.68;2.58;;;;;;;-141.50;100.00;63355.56;4998557;28;20175;-77
2021/03/28 10:31:16;;;;;;;15.35;2.80;;;;;;;-141.50;100.00;63355.56;4993676;28;20181;-77
2021/03/28 10:33:55;;;;;;;10.88;2.53;;;;;;;-141.50;100.00;63355.56;4996781;28;20327;-81
2021/03/28 10:36:30;;;;;;;11.32;2.50;;;;;;;-141.50;100.00;63355.56;4999762;28;20038;-78
2021/03/28 10:39:12;;;;;;;12.63;2.55;;;;;;;-141.50;100.00;63355.56;4998453;28;20085;-80
2021/03/28 10:42:02;;;;;;;13.18;2.53;;;;;;;-141.50;100.00;63355.56;4995473;28;20129;-82
2021/03/28 10:44:43;;;;;;;11.38;2.83;;;;;;;-141.50;100.00;63355.56;4995574;28;20472;-80
2021/03/28 10:47:34;;;;;;;14.20;3.15;;;;;;;-141.50;100.00;63355.56;4996136;28;20607;-81
2021/03/28 10:50:36;;;;;;;13.18;3.13;;;;;;;-141.50;100.00;63355.56;4994705;28;20046;-82
2021/03/28 10:53:47;;;;;;;9.98;2.72;;;;;;;-141.50;100.00;63355.56;4991323;28;20034;-81
2021/03/28 10:56:51;;;;;;;8.98;3.08;;;;;;;-141.50;100.00;63355.56;4980797;28;20124;-80
2021/03/28 10:59:55;;;;;;;12.20;2.70;;;;;;;-141.50;100.00;63355.56;4987529;28;20066;-80
2021/03/28 11:02:59;;;;;;;11.60;2.85;;;;;;;-141.50;100.00;63355.56;4977423;28;20046;-81
2021/03/28 11:05:50;;;;;;;9.48;2.67;;;;;;;-141.50;100.00;63355.56;4975247;28;20139;-80
2021/03/28 11:08:32;;;;;;;14.55;3.10;;;;;;;-141.50;100.00;63355.56;4990092;28;20046;-80
2021/03/28 11:11:32;;;;;;;11.35;3.40;;;;;;;-141.50;100.00;63355.56;4994283;28;20053;-79
2021/03/28 11:14:12;;;;;;;13.70;2.70;;;;;;;-141.50;100.00;63355.56;4997081;28;20046;-79
2021/03/28 11:16:42;;;;;;;10.90;2.60;;;;;;;-141.50;100.00;63355.56;4990714;28;20082;-79
2021/03/28 11:19:50;;;;;;;14.73;2.88;;;;;;;-141.50;100.00;63355.56;4990228;28;20564;-78
2021/03/28 11:22:32;;;;;;;16.50;2.78;;;;;;;-141.50;100.00;63355.56;4974423;28;20157;-80
2021/03/28 11:25:16;;;;;;;12.57;3.10;;;;;;;-141.50;100.00;63355.56;4992104;28;20109;-81
2021/03/28 11:28:10;;;;;;;12.95;3.30;;;;;;;-141.50;100.00;63355.56;4993430;28;20050;-79
2021/03/28 11:30:38;;;;;;;14.70;2.90;;;;;;;-141.50;100.00;63355.56;5010927;28;20077;-80
2021/03/28 11:33:30;;;;;;;15.23;2.97;;;;;;;-141.50;100.00;63355.56;4980380;28;20058;-80
2021/03/28 11:35:57;;;;;;;14.13;3.35;;;;;;;-141.50;100.00;63355.56;4996178;28;20073;-80
2021/03/28 11:38:23;;;;;;;16.15;3.80;;;;;;;-141.50;100.00;63355.56;4980729;28;20050;-79
2021/03/28 11:41:13;;;;;;;14.13;2.75;;;;;;;-141.50;100.00;63355.56;4995198;28;20078;-80
2021/03/28 11:43:39;;;;;;;14.40;3.42;;;;;;;-141.50;100.00;63355.56;5000423;28;20077;-79
2021/03/28 11:46:05;;;;;;;19.60;3.63;;;;;;;-141.50;100.00;63355.56;5002145;28;20054;-79
2021/03/28 11:48:45;;;;;;;16.17;3.80;;;;;;;-141.50;100.00;63355.56;4993573;28;20446;-78
2021/03/28 11:51:16;;;;;;;14.93;4.00;;;;;;;-141.50;100.00;63355.56;4992569;28;20084;-78
2021/03/28 11:53:43;;;;;;;10.82;3.53;;;;;;;-141.50;100.00;63355.56;4991716;28;20057;-80
2021/03/28 11:56:35;;;;;;;11.68;3.28;;;;;;;-141.50;100.00;63355.56;4987686;28;20509;-78
2021/03/28 11:59:05;;;;;;;12.95;3.70;;;;;;;-141.50;100.00;63355.56;4996376;28;20057;-79
2021/03/28 12:02:00;;;;;;;11.90;2.75;;;;;;;-141.50;100.00;63355.56;4990895;28;20070;-80
2021/03/28 12:04:43;;;;;;;12.07;3.60;;;;;;;-141.50;100.00;63355.56;4992785;28;20056;-82
2021/03/28 12:07:22;;;;;;;9.10;2.72;;;;;;;-141.50;100.00;63355.56;4997335;28;20050;-80
2021/03/28 12:10:00;;;;;;;8.20;2.42;;;;;;;-141.50;100.00;63355.56;4978514;28;20113;-79
2021/03/28 12:12:40;;;;;;;10.80;2.78;;;;;;;-141.50;100.00;63355.56;4992689;28;20482;-78
2021/03/28 12:15:44;;;;;;;8.70;2.40;;;;;;;-141.50;100.00;63355.56;4989795;28;20049;-80
2021/03/28 12:18:23;;;;;;;6.07;2.97;;;;;;;-141.50;100.00;63355.56;4990466;28;20051;-79
2021/03/28 12:21:04;;;;;;;10.13;3.00;;;;;;;-141.50;100.00;63355.56;4996355;28;20525;-79
2021/03/28 12:23:47;;;;;;;11.43;2.85;;;;;;;-141.50;100.00;63355.56;4979140;28;20054;-79
2021/03/28 12:26:47;;;;;;;6.75;2.53;;;;;;;-141.50;100.00;63355.56;4979430;28;20047;-79
2021/03/28 12:29:34;;;;;;;8.57;2.70;;;;;;;-141.50;100.00;63355.56;4988977;28;20514;-80
2021/03/28 12:32:41;;;;;;;8.82;2.55;;;;;;;-141.50;100.00;63355.56;5011961;28;20112;-81
2021/03/28 12:35:21;;;;;;;5.88;2.00;;;;;;;-141.50;100.00;63355.56;4992779;28;20521;-81
2021/03/28 12:37:49;;;;;;;10.68;2.40;;;;;;;-141.50;100.00;63355.56;5002953;28;20042;-79
2021/03/28 12:40:23;;;;;;;7.57;2.30;;;;;;;-141.50;100.00;63355.56;4991393;28;20062;-78
2021/03/28 12:42:51;;;;;;;4.83;1.87;;;;;;;-141.50;100.00;63355.56;4991745;28;20050;-80